createdAt,value
2022-11-06T00:00:59.162Z,19.90
2022-11-06T00:03:27.648Z,16.60
2022-11-06T00:06:14.283Z,18.90
2022-11-06T00:08:42.153Z,15.20
2022-11-06T00:11:11.427Z,21.00
2022-11-06T00:13:39.568Z,17.40
2022-11-06T00:16:09.004Z,17.20
2022-11-06T00:18:37.476Z,17.30
2022-11-06T00:21:17.011Z,17.30
2022-11-06T00:23:45.837Z,16.70
2022-11-06T00:26:14.939Z,18.60
2022-11-06T00:28:43.000Z,15.50
2022-11-06T00:31:12.386Z,17.90
2022-11-06T00:33:41.064Z,17.20
2022-11-06T00:36:10.787Z,17.10
2022-11-06T00:38:38.442Z,15.40
2022-11-06T00:41:07.855Z,16.80
2022-11-06T00:43:36.136Z,17.50
2022-11-06T00:46:04.685Z,18.10
2022-11-06T00:48:33.156Z,20.20
2022-11-06T00:51:04.853Z,17.50
2022-11-06T00:53:32.613Z,14.40
2022-11-06T00:56:10.996Z,17.10
2022-11-06T00:58:39.198Z,19.30
2022-11-06T01:01:11.265Z,17.30
2022-11-06T01:03:40.154Z,16.70
2022-11-06T01:06:09.350Z,19.60
2022-11-06T01:08:37.423Z,18.30
2022-11-06T01:11:06.312Z,17.70
2022-11-06T01:13:34.485Z,16.60
2022-11-06T01:16:04.399Z,16.80
2022-11-06T01:18:33.083Z,18.30
2022-11-06T01:21:03.716Z,18.60
2022-11-06T01:23:31.480Z,20.30
2022-11-06T01:26:01.147Z,20.00
2022-11-06T01:28:29.529Z,20.90
2022-11-06T01:31:01.834Z,17.00
2022-11-06T01:33:29.699Z,15.20
2022-11-06T01:35:57.466Z,17.80
2022-11-06T01:38:25.448Z,17.00
2022-11-06T01:40:53.502Z,16.80
2022-11-06T01:43:25.874Z,17.70
2022-11-06T01:45:54.564Z,16.00
2022-11-06T01:48:24.366Z,15.80
2022-11-06T01:50:55.515Z,18.80
2022-11-06T01:53:25.436Z,25.10
2022-11-06T01:55:56.262Z,21.60
2022-11-06T01:58:25.461Z,16.60
2022-11-06T02:00:53.491Z,15.60
2022-11-06T02:03:21.790Z,15.30
2022-11-06T02:05:49.477Z,18.70
2022-11-06T02:08:18.255Z,18.40
2022-11-06T02:10:46.664Z,14.80
2022-11-06T02:13:33.347Z,13.50
2022-11-06T02:16:21.262Z,16.00
2022-11-06T02:18:49.154Z,17.40
2022-11-06T02:21:33.037Z,13.10
2022-11-06T02:24:20.000Z,15.00
2022-11-06T02:27:00.358Z,12.70
2022-11-06T02:29:33.343Z,16.60
2022-11-06T02:32:05.040Z,13.20
2022-11-06T02:34:35.636Z,20.10
2022-11-06T02:37:15.202Z,18.70
2022-11-06T02:39:44.984Z,13.60
2022-11-06T02:42:14.379Z,12.30
2022-11-06T02:44:42.902Z,16.40
2022-11-06T02:47:12.262Z,16.10
2022-11-06T02:49:43.516Z,17.50
2022-11-06T02:52:13.012Z,24.80
2022-11-06T02:54:43.443Z,19.00
2022-11-06T02:57:15.833Z,19.00
2022-11-06T02:59:56.989Z,23.50
2022-11-06T03:02:27.960Z,19.20
2022-11-06T03:05:00.833Z,18.30
2022-11-06T03:07:35.329Z,17.60
2022-11-06T03:10:04.016Z,17.20
2022-11-06T03:12:33.542Z,19.80
2022-11-06T03:15:04.330Z,15.60
2022-11-06T03:17:38.272Z,18.00
2022-11-06T03:20:16.369Z,15.00
2022-11-06T03:22:50.001Z,22.70
2022-11-06T03:25:23.984Z,13.30
2022-11-06T03:28:04.960Z,16.50
2022-11-06T03:30:34.989Z,14.70
2022-11-06T03:33:08.670Z,17.20
2022-11-06T03:35:36.541Z,27.50
2022-11-06T03:38:13.182Z,43.20
2022-11-06T03:41:04.423Z,26.90
2022-11-06T03:43:35.985Z,28.90
2022-11-06T03:46:06.106Z,26.10
2022-11-06T03:48:38.159Z,22.00
2022-11-06T03:51:17.903Z,18.60
2022-11-06T03:53:48.533Z,32.80
2022-11-06T03:56:36.489Z,43.90
2022-11-06T03:59:06.277Z,44.70
2022-11-06T04:01:35.736Z,66.90
2022-11-06T04:04:10.719Z,29.00
2022-11-06T04:06:42.783Z,21.60
2022-11-06T04:09:32.766Z,22.10
2022-11-06T04:12:22.158Z,28.60
2022-11-06T04:14:52.051Z,57.10
2022-11-06T04:17:20.206Z,129.90
2022-11-06T04:19:50.857Z,51.80
2022-11-06T04:22:34.903Z,51.80
2022-11-06T04:25:21.716Z,28.60
2022-11-06T04:30:18.118Z,15.70
2022-11-06T04:32:59.845Z,14.40
2022-11-06T04:35:50.244Z,13.40
2022-11-06T04:38:40.124Z,15.30
2022-11-06T04:41:13.940Z,15.30
2022-11-06T04:43:41.592Z,19.70
2022-11-06T04:46:11.310Z,18.20
2022-11-06T04:48:39.512Z,20.10
2022-11-06T04:51:09.695Z,18.50
2022-11-06T04:53:38.132Z,21.40
2022-11-06T04:56:21.507Z,20.20
2022-11-06T04:58:49.778Z,16.10
2022-11-06T05:01:17.983Z,20.60
2022-11-06T05:03:45.818Z,16.00
2022-11-06T05:06:13.790Z,16.30
2022-11-06T05:08:41.561Z,14.60
2022-11-06T05:11:09.415Z,14.10
2022-11-06T05:13:38.310Z,13.60
2022-11-06T05:16:06.069Z,13.80
2022-11-06T05:18:33.935Z,17.40
2022-11-06T05:21:20.952Z,13.70
2022-11-06T05:23:48.797Z,16.10
2022-11-06T05:26:16.689Z,15.80
2022-11-06T05:28:44.305Z,14.60
2022-11-06T05:31:12.726Z,15.00
2022-11-06T05:33:40.464Z,13.50
2022-11-06T05:36:08.658Z,17.80
2022-11-06T05:38:36.541Z,16.20
2022-11-06T05:41:04.377Z,14.70
2022-11-06T05:43:32.357Z,12.50
2022-11-06T05:46:00.735Z,15.00
2022-11-06T05:48:29.215Z,20.00
2022-11-06T05:51:00.460Z,16.70
2022-11-06T05:53:28.621Z,11.80
2022-11-06T05:55:56.224Z,15.30
2022-11-06T05:58:24.355Z,16.70
2022-11-06T06:00:52.573Z,18.30
2022-11-06T06:03:21.535Z,13.80
2022-11-06T06:05:49.609Z,13.10
2022-11-06T06:08:17.505Z,16.70
2022-11-06T06:10:46.058Z,17.00
2022-11-06T06:13:14.536Z,14.70
2022-11-06T06:15:43.026Z,15.30
2022-11-06T06:18:11.310Z,15.30
2022-11-06T06:20:39.673Z,17.30
2022-11-06T06:23:09.599Z,14.00
2022-11-06T06:25:37.633Z,16.20
2022-11-06T06:28:05.721Z,17.10
2022-11-06T06:30:35.926Z,19.50
2022-11-06T06:33:06.255Z,16.40
2022-11-06T06:35:34.356Z,18.10
2022-11-06T06:38:03.585Z,17.20
2022-11-06T06:40:31.614Z,14.90
2022-11-06T06:43:00.098Z,16.00
2022-11-06T06:45:28.654Z,14.50
2022-11-06T06:48:02.506Z,17.60
2022-11-06T06:50:31.623Z,15.50
2022-11-06T06:53:01.229Z,16.40
2022-11-06T06:55:32.324Z,16.70
2022-11-06T06:58:02.127Z,14.90
2022-11-06T07:00:30.172Z,17.00
2022-11-06T07:02:58.283Z,19.10
2022-11-06T07:05:26.754Z,18.20
2022-11-06T07:07:55.029Z,15.20
2022-11-06T07:10:23.403Z,15.20
2022-11-06T07:12:51.132Z,16.50
2022-11-06T07:15:19.361Z,16.50
2022-11-06T07:17:47.414Z,19.80
2022-11-06T07:20:16.710Z,15.70
2022-11-06T07:22:45.218Z,17.30
2022-11-06T07:25:14.413Z,18.00
2022-11-06T07:27:43.840Z,19.80
2022-11-06T07:30:13.935Z,15.90
2022-11-06T07:32:45.978Z,17.00
2022-11-06T07:35:15.761Z,26.40
2022-11-06T07:37:45.019Z,65.10
2022-11-06T07:40:13.973Z,61.70
2022-11-06T07:42:43.601Z,56.30
2022-11-06T07:45:12.247Z,28.50
2022-11-06T07:47:40.442Z,26.30
2022-11-06T07:50:08.724Z,26.50
2022-11-06T07:52:36.693Z,18.70
2022-11-06T07:55:05.163Z,21.50
2022-11-06T07:57:35.910Z,20.90
2022-11-06T08:00:06.464Z,19.60
2022-11-06T08:02:34.337Z,20.60
2022-11-06T08:05:03.954Z,21.40
2022-11-06T08:07:32.582Z,21.60
2022-11-06T08:10:00.359Z,21.20
2022-11-06T08:12:30.445Z,21.00
2022-11-06T08:14:59.975Z,19.00
2022-11-06T08:17:32.011Z,17.70
2022-11-06T08:20:01.339Z,16.00
2022-11-06T08:22:29.617Z,16.90
2022-11-06T08:24:58.195Z,21.60
2022-11-06T08:27:27.329Z,21.50
2022-11-06T08:29:56.177Z,18.60
2022-11-06T08:32:24.293Z,18.90
2022-11-06T08:34:53.275Z,21.90
2022-11-06T08:37:22.127Z,19.10
2022-11-06T08:39:52.758Z,22.70
2022-11-06T08:42:20.641Z,22.40
2022-11-06T08:44:52.085Z,22.60
2022-11-06T08:47:20.453Z,23.20
2022-11-06T08:49:48.440Z,23.60
2022-11-06T08:52:17.209Z,20.30
2022-11-06T08:54:46.368Z,22.00
2022-11-06T08:57:14.788Z,30.10
2022-11-06T08:59:43.161Z,21.80
2022-11-06T09:02:13.269Z,20.40
2022-11-06T09:04:41.680Z,19.60
2022-11-06T09:07:09.740Z,19.40
2022-11-06T09:09:38.014Z,21.40
2022-11-06T09:12:06.279Z,17.60
2022-11-06T09:14:36.693Z,17.90
2022-11-06T09:17:05.910Z,18.40
2022-11-06T09:19:33.667Z,17.20
2022-11-06T09:22:01.498Z,19.70
2022-11-06T09:24:57.054Z,16.80
2022-11-06T09:27:17.848Z,15.80
2022-11-06T09:29:45.726Z,14.90
2022-11-06T09:32:13.475Z,16.20
2022-11-06T09:34:41.261Z,14.70
2022-11-06T09:37:09.293Z,19.40
2022-11-06T09:39:40.200Z,15.90
2022-11-06T09:42:19.907Z,13.10
2022-11-06T09:44:59.940Z,16.40
2022-11-06T09:47:30.265Z,15.50
2022-11-06T09:49:58.795Z,17.10
2022-11-06T09:52:32.176Z,16.80
2022-11-06T09:55:05.558Z,15.10
2022-11-06T09:57:34.431Z,15.80
2022-11-06T10:00:06.825Z,12.50
2022-11-06T10:02:51.239Z,14.80
2022-11-06T10:05:26.298Z,11.20
2022-11-06T10:07:56.068Z,12.60
2022-11-06T10:10:28.492Z,15.50
2022-11-06T10:13:16.221Z,13.40
2022-11-06T10:16:08.647Z,13.20
2022-11-06T10:18:45.364Z,15.00
2022-11-06T10:21:24.754Z,16.80
2022-11-06T10:24:07.384Z,13.70
2022-11-06T10:26:38.505Z,11.40
2022-11-06T10:29:21.429Z,10.10
2022-11-06T10:32:22.176Z,11.10
2022-11-06T10:34:52.694Z,12.70
2022-11-06T10:37:30.180Z,11.00
2022-11-06T10:39:58.979Z,14.80
2022-11-06T10:42:36.728Z,8.20
2022-11-06T10:45:11.858Z,13.10
2022-11-06T10:47:42.861Z,8.80
2022-11-06T10:50:14.204Z,11.40
2022-11-06T10:52:45.024Z,9.70
2022-11-06T10:55:15.863Z,8.10
2022-11-06T10:57:47.566Z,8.30
2022-11-06T11:00:16.005Z,8.40
2022-11-06T11:02:48.984Z,8.60
2022-11-06T11:05:18.696Z,9.00
2022-11-06T11:07:48.311Z,12.80
2022-11-06T11:10:27.655Z,10.90
2022-11-06T11:13:01.686Z,11.20
2022-11-06T11:15:34.690Z,9.80
2022-11-06T11:18:07.715Z,8.70
2022-11-06T11:20:36.935Z,8.70
2022-11-06T11:23:26.365Z,7.70
2022-11-06T11:25:56.610Z,8.30
2022-11-06T11:28:33.095Z,12.80
2022-11-06T11:31:07.311Z,10.20
2022-11-06T11:33:35.973Z,7.80
2022-11-06T11:36:07.121Z,10.10
2022-11-06T11:38:35.708Z,11.60
2022-11-06T11:41:21.901Z,8.30
2022-11-06T11:43:57.526Z,10.10
2022-11-06T11:46:25.790Z,8.60
2022-11-06T11:48:58.006Z,6.70
2022-11-06T11:51:34.148Z,8.30
2022-11-06T11:54:15.750Z,7.60
2022-11-06T11:57:03.693Z,9.70
2022-11-06T11:59:36.969Z,9.20
2022-11-06T12:02:14.495Z,7.40
2022-11-06T12:04:45.801Z,10.40
2022-11-06T12:07:22.706Z,11.00
2022-11-06T12:09:51.425Z,9.70
2022-11-06T12:12:47.713Z,7.20
2022-11-06T12:15:21.927Z,8.10
2022-11-06T12:18:10.088Z,9.70
2022-11-06T12:20:50.312Z,9.40
2022-11-06T12:23:41.036Z,8.40
2022-11-06T12:26:19.628Z,7.40
2022-11-06T12:28:50.919Z,7.50
2022-11-06T12:31:40.015Z,9.10
2022-11-06T12:34:16.957Z,7.70
2022-11-06T12:36:48.569Z,8.70
2022-11-06T12:39:23.519Z,9.80
2022-11-06T12:41:55.713Z,9.00
2022-11-06T12:44:28.011Z,8.60
2022-11-06T12:47:12.091Z,10.50
2022-11-06T12:49:47.633Z,8.80
2022-11-06T12:52:48.347Z,10.60
2022-11-06T12:55:52.917Z,10.80
2022-11-06T12:58:40.216Z,9.70
2022-11-06T13:01:33.696Z,9.10
2022-11-06T13:04:15.573Z,8.80
2022-11-06T13:06:51.371Z,12.30
2022-11-06T13:12:13.077Z,10.70
2022-11-06T13:14:40.949Z,9.80
2022-11-06T13:17:11.947Z,10.90
2022-11-06T13:19:49.784Z,9.00
2022-11-06T13:22:26.314Z,10.50
2022-11-06T13:24:56.184Z,9.40
2022-11-06T13:27:39.834Z,8.40
2022-11-06T13:30:23.450Z,8.40
2022-11-06T13:32:53.758Z,11.00
2022-11-06T13:35:22.579Z,8.90
2022-11-06T13:37:51.539Z,11.10
2022-11-06T13:40:25.436Z,8.00
2022-11-06T13:42:57.523Z,7.90
2022-11-06T13:45:25.735Z,8.00
2022-11-06T13:48:05.992Z,9.80
2022-11-06T13:50:46.494Z,8.20
2022-11-06T13:53:20.323Z,8.20
2022-11-06T13:56:07.318Z,9.20
2022-11-06T13:58:47.501Z,8.40
2022-11-06T14:01:15.706Z,10.00
2022-11-06T14:03:46.362Z,8.80
2022-11-06T14:06:16.780Z,10.40
2022-11-06T14:08:47.326Z,8.50
2022-11-06T14:11:17.244Z,7.50
2022-11-06T14:14:00.884Z,8.00
2022-11-06T14:16:32.998Z,8.00
2022-11-06T14:19:05.624Z,7.60
2022-11-06T14:21:36.356Z,9.30
2022-11-06T14:24:14.290Z,7.90
2022-11-06T14:26:44.333Z,9.00
2022-11-06T14:29:28.425Z,7.80
2022-11-06T14:32:12.775Z,8.70
2022-11-06T14:34:42.914Z,9.50
2022-11-06T14:37:20.381Z,12.30
2022-11-06T14:40:08.525Z,10.50
2022-11-06T14:42:37.742Z,7.10
2022-11-06T14:45:08.559Z,8.90
2022-11-06T14:47:50.213Z,11.60
2022-11-06T14:50:21.104Z,10.00
2022-11-06T14:52:51.100Z,10.20
2022-11-06T14:55:34.949Z,10.90
2022-11-06T14:58:16.894Z,10.30
2022-11-06T15:00:50.256Z,16.70
2022-11-06T15:03:28.582Z,12.40
2022-11-06T15:06:00.709Z,10.90
2022-11-06T15:08:47.134Z,11.10
2022-11-06T15:11:34.432Z,12.80
2022-11-06T15:14:09.174Z,16.10
2022-11-06T15:16:57.859Z,20.40
2022-11-06T15:19:28.433Z,17.90
2022-11-06T15:22:19.966Z,14.10
2022-11-06T15:24:52.339Z,16.40
2022-11-06T15:27:22.348Z,14.20
2022-11-06T15:29:52.721Z,14.20
2022-11-06T15:32:25.761Z,13.60
2022-11-06T15:35:07.585Z,15.10
2022-11-06T15:37:43.921Z,25.60
2022-11-06T15:40:44.661Z,282.30
2022-11-06T15:43:21.426Z,216.80
2022-11-06T15:46:07.011Z,169.60
2022-11-06T15:48:35.590Z,111.40
2022-11-06T15:51:05.202Z,39.00
2022-11-06T15:53:36.938Z,22.10
2022-11-06T15:56:08.996Z,21.30
2022-11-06T15:58:38.729Z,14.60
2022-11-06T16:01:11.664Z,20.10
2022-11-06T16:03:48.288Z,14.20
2022-11-06T16:06:16.191Z,15.80
2022-11-06T16:08:44.942Z,17.40
2022-11-06T16:11:20.188Z,17.00
2022-11-06T16:13:48.457Z,16.00
2022-11-06T16:16:32.129Z,13.60
2022-11-06T16:19:01.502Z,13.20
2022-11-06T16:21:33.864Z,12.40
2022-11-06T16:24:11.782Z,14.40
2022-11-06T16:26:44.678Z,16.40
2022-11-06T16:29:31.428Z,11.10
2022-11-06T16:32:16.155Z,11.60
2022-11-06T16:34:46.244Z,12.10
2022-11-06T16:37:17.277Z,12.30
2022-11-06T16:39:56.118Z,10.40
2022-11-06T16:42:24.257Z,13.40
2022-11-06T16:45:00.943Z,12.50
2022-11-06T16:47:29.745Z,14.70
2022-11-06T16:49:59.456Z,12.20
2022-11-06T16:52:32.562Z,12.70
2022-11-06T16:55:06.743Z,12.00
2022-11-06T16:57:44.938Z,14.40
2022-11-06T17:00:20.912Z,11.00
2022-11-06T17:02:53.934Z,11.60
2022-11-06T17:05:24.017Z,15.40
2022-11-06T17:08:10.948Z,14.20
2022-11-06T17:10:41.471Z,16.90
2022-11-06T17:13:15.096Z,14.70
2022-11-06T17:15:48.551Z,12.50
2022-11-06T17:18:19.286Z,14.90
2022-11-06T17:20:50.344Z,14.90
2022-11-06T17:23:19.106Z,16.80
2022-11-06T17:25:50.630Z,17.50
2022-11-06T17:28:22.008Z,11.50
2022-11-06T17:30:56.282Z,19.00
2022-11-06T17:33:26.527Z,17.10
2022-11-06T17:35:54.939Z,17.50
2022-11-06T17:38:23.615Z,18.40
2022-11-06T17:41:02.731Z,18.20
2022-11-06T17:43:33.396Z,17.70
2022-11-06T17:46:04.097Z,20.60
2022-11-06T17:48:36.202Z,19.30
2022-11-06T17:51:38.475Z,20.80
2022-11-06T17:54:10.653Z,19.10
2022-11-06T17:56:40.644Z,23.70
2022-11-06T17:59:11.715Z,23.00
2022-11-06T18:01:41.337Z,26.70
2022-11-06T18:04:11.454Z,24.80
2022-11-06T18:06:43.289Z,22.90
2022-11-06T18:09:13.504Z,19.90
2022-11-06T18:11:43.613Z,22.60
2022-11-06T18:14:40.659Z,20.50
2022-11-06T18:17:09.887Z,28.40
2022-11-06T18:19:38.729Z,24.80
2022-11-06T18:22:08.042Z,24.20
2022-11-06T18:24:39.055Z,21.40
2022-11-06T18:27:08.809Z,22.00
2022-11-06T18:29:39.301Z,21.20
2022-11-06T18:32:09.182Z,25.90
2022-11-06T18:34:41.544Z,23.40
2022-11-06T18:37:12.462Z,20.60
2022-11-06T18:39:41.412Z,24.30
2022-11-06T18:42:11.948Z,23.90
2022-11-06T18:44:41.772Z,23.30
2022-11-06T18:47:11.237Z,23.60
2022-11-06T18:49:39.745Z,25.30
2022-11-06T18:52:08.934Z,23.30
2022-11-06T18:54:39.070Z,24.30
2022-11-06T18:57:08.782Z,22.30
2022-11-06T18:59:37.472Z,24.30
2022-11-06T19:02:06.032Z,20.60
2022-11-06T19:04:37.009Z,20.60
2022-11-06T19:07:06.489Z,18.90
2022-11-06T19:09:35.683Z,22.60
2022-11-06T19:12:05.817Z,18.50
2022-11-06T19:14:34.902Z,22.60
2022-11-06T19:17:04.255Z,22.00
2022-11-06T19:19:33.914Z,20.70
2022-11-06T19:22:02.278Z,24.60
2022-11-06T19:24:30.153Z,32.10
2022-11-06T19:26:58.733Z,43.10
2022-11-06T19:29:27.555Z,60.40
2022-11-06T19:32:02.973Z,52.40
2022-11-06T19:34:38.884Z,33.30
2022-11-06T19:37:08.109Z,31.10
2022-11-06T19:39:40.087Z,28.30
2022-11-06T19:42:10.065Z,24.00
2022-11-06T19:44:38.200Z,31.00
2022-11-06T19:47:06.024Z,22.50
2022-11-06T19:49:34.195Z,21.40
2022-11-06T19:52:44.008Z,23.00
2022-11-06T19:54:51.021Z,21.30
2022-11-06T19:57:39.468Z,25.00
2022-11-06T20:00:11.298Z,23.40
2022-11-06T20:02:40.481Z,26.10
2022-11-06T20:05:08.908Z,23.70
2022-11-06T20:07:38.422Z,23.60
2022-11-06T20:10:06.786Z,24.40
2022-11-06T20:12:34.871Z,24.50
2022-11-06T20:15:03.549Z,26.90
2022-11-06T20:17:32.027Z,33.00
2022-11-06T20:20:00.916Z,44.10
2022-11-06T20:22:29.290Z,31.60
2022-11-06T20:24:57.772Z,26.40
2022-11-06T20:27:27.056Z,26.50
2022-11-06T20:29:55.868Z,20.80
2022-11-06T20:32:34.791Z,24.90
2022-11-06T20:35:06.028Z,24.00
2022-11-06T20:37:36.187Z,26.00
2022-11-06T20:40:06.518Z,37.60
2022-11-06T20:42:35.613Z,26.70
2022-11-06T20:45:05.056Z,25.60
2022-11-06T20:47:34.062Z,32.10
2022-11-06T20:50:02.328Z,28.40
2022-11-06T20:52:31.127Z,30.40
2022-11-06T20:55:02.174Z,32.40
2022-11-06T20:57:30.540Z,34.90
2022-11-06T20:59:58.313Z,30.60
2022-11-06T21:02:26.294Z,29.90
2022-11-06T21:04:57.075Z,29.50
2022-11-06T21:07:26.714Z,33.20
2022-11-06T21:09:55.507Z,40.40
2022-11-06T21:12:23.888Z,32.70
2022-11-06T21:14:52.068Z,36.20
2022-11-06T21:17:20.227Z,38.20
2022-11-06T21:19:48.500Z,35.80
2022-11-06T21:22:16.442Z,35.30
2022-11-06T21:24:45.368Z,38.00
2022-11-06T21:27:14.350Z,51.40
2022-11-06T21:29:43.555Z,44.70
2022-11-06T21:32:12.166Z,44.40
2022-11-06T21:34:40.577Z,43.70
2022-11-06T21:37:10.756Z,35.00
2022-11-06T21:39:39.337Z,36.50
2022-11-06T21:42:07.184Z,33.90
2022-11-06T21:44:35.366Z,33.20
2022-11-06T21:47:03.538Z,42.30
2022-11-06T21:49:31.506Z,42.20
2022-11-06T21:52:19.703Z,40.30
2022-11-06T21:55:06.660Z,34.20
2022-11-06T21:57:34.694Z,38.80
2022-11-06T22:00:03.009Z,39.90
2022-11-06T22:02:32.355Z,35.40
2022-11-06T22:05:00.475Z,33.60
2022-11-06T22:07:30.656Z,32.80
2022-11-06T22:09:59.839Z,38.30
2022-11-06T22:12:27.760Z,37.50
2022-11-06T22:14:56.233Z,37.70
2022-11-06T22:17:24.620Z,39.00
2022-11-06T22:19:55.893Z,40.30
2022-11-06T22:22:25.053Z,37.50
2022-11-06T22:24:53.026Z,37.10
2022-11-06T22:27:21.091Z,46.10
2022-11-06T22:29:48.756Z,45.90
2022-11-06T22:32:16.925Z,39.70
2022-11-06T22:34:44.851Z,36.90
2022-11-06T22:37:12.526Z,43.80
2022-11-06T22:39:40.425Z,46.70
2022-11-06T22:42:08.860Z,46.40
2022-11-06T22:44:37.295Z,39.00
2022-11-06T22:47:05.810Z,46.50
2022-11-06T22:49:33.639Z,42.60
2022-11-06T22:52:01.696Z,53.50
2022-11-06T22:54:29.564Z,41.10
2022-11-06T22:56:57.274Z,39.20
2022-11-06T22:59:25.358Z,41.60
2022-11-06T23:01:54.408Z,48.60
2022-11-06T23:04:23.999Z,41.20
2022-11-06T23:06:52.279Z,40.70
2022-11-06T23:09:20.437Z,43.10
2022-11-06T23:11:48.211Z,40.10
2022-11-06T23:14:16.081Z,40.90
2022-11-06T23:17:01.119Z,43.10
2022-11-06T23:19:29.936Z,50.50
2022-11-06T23:22:17.177Z,48.60
2022-11-06T23:24:45.546Z,39.60
2022-11-06T23:27:13.505Z,47.90
2022-11-06T23:29:41.472Z,46.10
2022-11-06T23:32:09.640Z,43.10
2022-11-06T23:34:37.470Z,48.30
2022-11-06T23:37:05.777Z,49.40
2022-11-06T23:39:33.643Z,51.30
2022-11-06T23:42:01.303Z,51.40
2022-11-06T23:44:47.931Z,48.30
2022-11-06T23:47:15.779Z,56.60
2022-11-06T23:49:43.849Z,49.60
2022-11-06T23:52:12.223Z,51.80
2022-11-06T23:54:40.318Z,51.60
2022-11-06T23:57:08.549Z,61.80
2022-11-06T23:59:38.743Z,54.40
